createdAt,value
2022-07-29T22:00:56.510Z,86.26
2022-07-29T22:01:39.377Z,85.76
2022-07-29T22:02:06.595Z,86.16
2022-07-29T22:02:41.777Z,85.96
2022-07-29T22:03:16.945Z,85.86
2022-07-29T22:03:52.150Z,85.36
2022-07-29T22:04:27.642Z,85.86
2022-07-29T22:05:02.729Z,85.60
2022-07-29T22:05:38.011Z,85.30
2022-07-29T22:06:17.292Z,85.56
2022-07-29T22:06:48.466Z,85.25
2022-07-29T22:07:23.643Z,85.40
2022-07-29T22:07:58.729Z,85.20
2022-07-29T22:08:33.695Z,85.00
2022-07-29T22:09:09.107Z,85.10
2022-07-29T22:09:44.477Z,85.16
2022-07-29T22:10:19.966Z,85.20
2022-07-29T22:10:54.961Z,85.10
2022-07-29T22:11:29.839Z,85.20
2022-07-29T22:12:04.809Z,84.59
2022-07-29T22:12:39.895Z,84.19
2022-07-29T22:13:15.173Z,84.49
2022-07-29T22:13:50.351Z,84.49
2022-07-29T22:14:25.570Z,84.69
2022-07-29T22:15:01.012Z,85.20
2022-07-29T22:15:36.283Z,84.89
2022-07-29T22:16:11.383Z,84.09
2022-07-29T22:16:46.514Z,84.80
2022-07-29T22:17:21.778Z,84.29
2022-07-29T22:17:56.846Z,85.00
2022-07-29T22:18:32.221Z,84.39
2022-07-29T22:19:07.353Z,84.89
2022-07-29T22:19:42.528Z,84.89
2022-07-29T22:20:17.911Z,84.59
2022-07-29T22:20:52.993Z,84.69
2022-07-29T22:21:28.094Z,84.49
2022-07-29T22:22:03.364Z,84.80
2022-07-29T22:22:38.748Z,84.49
2022-07-29T22:23:14.240Z,84.89
2022-07-29T22:23:49.520Z,85.30
2022-07-29T22:24:24.819Z,85.20
2022-07-29T22:25:00.109Z,85.20
2022-07-29T22:25:35.628Z,85.50
2022-07-29T22:26:10.812Z,85.80
2022-07-29T22:26:46.213Z,85.90
2022-07-29T22:27:21.400Z,85.50
2022-07-29T22:27:56.814Z,85.40
2022-07-29T22:28:32.123Z,85.50
2022-07-29T22:29:07.225Z,85.40
2022-07-29T22:29:42.235Z,85.40
2022-07-29T22:30:17.337Z,85.70
2022-07-29T22:30:52.712Z,85.44
2022-07-29T22:31:27.723Z,85.60
2022-07-29T22:32:02.734Z,85.24
2022-07-29T22:32:37.826Z,85.80
2022-07-29T22:33:16.988Z,85.20
2022-07-29T22:33:48.030Z,85.24
2022-07-29T22:34:23.330Z,86.00
2022-07-29T22:34:58.841Z,85.34
2022-07-29T22:35:33.823Z,85.74
2022-07-29T22:36:09.215Z,85.84
2022-07-29T22:36:44.685Z,85.74
2022-07-29T22:37:19.877Z,85.84
2022-07-29T22:37:55.174Z,86.35
2022-07-29T22:38:30.173Z,85.84
2022-07-29T22:39:05.671Z,86.35
2022-07-29T22:39:40.770Z,86.35
2022-07-29T22:40:15.867Z,86.65
2022-07-29T22:40:50.937Z,86.35
2022-07-29T22:41:26.028Z,86.15
2022-07-29T22:42:01.515Z,86.24
2022-07-29T22:42:37.004Z,86.55
2022-07-29T22:43:12.192Z,86.35
2022-07-29T22:43:47.375Z,86.04
2022-07-29T22:44:22.825Z,86.15
2022-07-29T22:44:58.014Z,86.35
2022-07-29T22:45:33.221Z,87.25
2022-07-29T22:46:08.663Z,86.55
2022-07-29T22:46:43.612Z,86.44
2022-07-29T22:47:18.711Z,86.35
2022-07-29T22:47:59.063Z,86.95
2022-07-29T22:48:29.695Z,86.55
2022-07-29T22:49:05.370Z,86.15
2022-07-29T22:49:40.571Z,86.65
2022-07-29T22:50:15.874Z,86.75
2022-07-29T22:50:51.121Z,86.75
2022-07-29T22:51:26.253Z,87.65
2022-07-29T22:52:01.196Z,87.25
2022-07-29T22:52:36.262Z,87.96
2022-07-29T22:53:11.534Z,86.75
2022-07-29T22:53:46.724Z,86.55
2022-07-29T22:54:21.748Z,87.55
2022-07-29T22:54:56.935Z,88.06
2022-07-29T22:55:32.032Z,87.25
2022-07-29T22:56:07.314Z,86.15
2022-07-29T22:56:42.414Z,86.55
2022-07-29T22:57:17.687Z,85.94
2022-07-29T22:57:52.701Z,86.44
2022-07-29T22:58:27.724Z,86.55
2022-07-29T22:59:03.079Z,86.24
2022-07-29T22:59:38.425Z,86.44
2022-07-29T23:00:13.700Z,86.15
2022-07-29T23:00:48.796Z,86.55
2022-07-29T23:01:37.538Z,86.35
2022-07-29T23:01:59.639Z,85.84
2022-07-29T23:02:34.654Z,86.55
2022-07-29T23:03:09.832Z,86.65
2022-07-29T23:03:51.136Z,86.04
2022-07-29T23:04:20.261Z,86.04
2022-07-29T23:04:55.714Z,86.04
2022-07-29T23:05:30.924Z,85.84
2022-07-29T23:06:06.010Z,86.15
2022-07-29T23:06:41.327Z,86.35
2022-07-29T23:07:16.511Z,86.35
2022-07-29T23:07:51.702Z,86.15
2022-07-29T23:08:26.898Z,86.15
2022-07-29T23:09:01.992Z,86.24
2022-07-29T23:09:37.196Z,86.24
2022-07-29T23:10:12.468Z,86.89
2022-07-29T23:10:47.563Z,86.75
2022-07-29T23:11:22.754Z,85.84
2022-07-29T23:11:57.826Z,87.19
2022-07-29T23:12:32.824Z,85.88
2022-07-29T23:13:07.894Z,86.69
2022-07-29T23:13:42.997Z,86.18
2022-07-29T23:14:17.996Z,86.18
2022-07-29T23:14:53.284Z,86.99
2022-07-29T23:15:28.371Z,86.89
2022-07-29T23:16:03.553Z,86.58
2022-07-29T23:16:39.005Z,85.98
2022-07-29T23:17:15.132Z,86.08
2022-07-29T23:17:50.355Z,86.08
2022-07-29T23:18:25.533Z,86.08
2022-07-29T23:19:00.528Z,86.99
2022-07-29T23:19:35.629Z,86.89
2022-07-29T23:20:10.912Z,87.49
2022-07-29T23:20:45.917Z,87.19
2022-07-29T23:21:21.099Z,87.29
2022-07-29T23:21:56.200Z,87.40
2022-07-29T23:22:31.477Z,87.09
2022-07-29T23:23:06.879Z,86.58
2022-07-29T23:23:41.966Z,86.38
2022-07-29T23:24:16.983Z,87.29
2022-07-29T23:24:52.554Z,86.18
2022-07-29T23:25:27.626Z,86.18
2022-07-29T23:26:02.711Z,85.98
2022-07-29T23:26:37.624Z,86.08
2022-07-29T23:27:12.984Z,86.29
2022-07-29T23:27:48.379Z,86.38
2022-07-29T23:28:23.578Z,86.02
2022-07-29T23:28:58.767Z,85.28
2022-07-29T23:29:36.643Z,86.08
2022-07-29T23:30:09.468Z,85.82
2022-07-29T23:30:44.598Z,85.62
2022-07-29T23:31:19.889Z,86.43
2022-07-29T23:31:55.024Z,86.73
2022-07-29T23:32:30.029Z,86.18
2022-07-29T23:33:05.299Z,86.93
2022-07-29T23:33:40.899Z,86.93
2022-07-29T23:34:15.998Z,87.23
2022-07-29T23:34:51.199Z,86.73
2022-07-29T23:35:26.501Z,86.93
2022-07-29T23:36:01.711Z,86.83
2022-07-29T23:36:36.926Z,86.63
2022-07-29T23:37:12.492Z,88.04
2022-07-29T23:37:47.571Z,87.34
2022-07-29T23:38:22.858Z,87.63
2022-07-29T23:38:58.067Z,87.74
2022-07-29T23:39:33.282Z,86.63
2022-07-29T23:40:12.281Z,87.94
2022-07-29T23:40:43.745Z,87.23
2022-07-29T23:41:18.827Z,87.63
2022-07-29T23:41:54.020Z,88.54
2022-07-29T23:42:29.116Z,87.74
2022-07-29T23:43:08.797Z,87.54
2022-07-29T23:43:39.294Z,87.63
2022-07-29T23:44:14.576Z,86.93
2022-07-29T23:44:49.877Z,87.23
2022-07-29T23:45:39.978Z,88.14
2022-07-29T23:46:00.461Z,87.94
2022-07-29T23:46:35.773Z,88.04
2022-07-29T23:47:11.017Z,87.43
2022-07-29T23:47:45.912Z,87.84
2022-07-29T23:48:20.999Z,87.78
2022-07-29T23:48:56.315Z,87.78
2022-07-29T23:49:31.788Z,87.74
2022-07-29T23:50:07.142Z,87.68
2022-07-29T23:50:42.450Z,88.18
2022-07-29T23:51:17.525Z,88.79
2022-07-29T23:51:52.934Z,89.19
2022-07-29T23:52:28.429Z,88.28
2022-07-29T23:53:03.591Z,88.99
2022-07-29T23:53:38.798Z,88.79
2022-07-29T23:54:14.186Z,88.79
2022-07-29T23:54:49.377Z,88.18
2022-07-29T23:55:36.558Z,88.18
2022-07-29T23:55:59.553Z,88.59
2022-07-29T23:56:34.846Z,88.18
2022-07-29T23:57:10.121Z,88.18
2022-07-29T23:57:45.596Z,88.89
2022-07-29T23:58:20.594Z,88.24
2022-07-29T23:58:55.675Z,88.18
2022-07-29T23:59:30.983Z,87.98
